Time;durP1;ratioP1;P1;durP2;ratioP2;P2;SDS_P1;SDS_P2;PMS_P1;PMS_P2;Temp;Humidity;BMP_temperature;BMP_pressure;BME280_temperature;BME280_humidity;BME280_pressure;Samples;Min_cycle;Max_cycle;Signal;HPM_P1;HPM_P2
2022/03/25 00:00:25;;;;;;;22.48;19.08;;;4.30;69.90;;;;;;5026650;28;20029;-79
2022/03/25 00:02:52;;;;;;;23.02;18.52;;;4.30;70.10;;;;;;5031003;28;20036;-79
2022/03/25 00:05:19;;;;;;;22.15;17.67;;;4.30;70.00;;;;;;5028446;28;20037;-80
2022/03/25 00:07:45;;;;;;;25.08;18.25;;;4.20;70.30;;;;;;5012884;28;20037;-79
2022/03/25 00:10:11;;;;;;;24.38;17.15;;;4.20;70.30;;;;;;5019281;28;20034;-80
2022/03/25 00:12:38;;;;;;;24.33;20.17;;;4.10;70.40;;;;;;5021397;28;20044;-80
2022/03/25 00:15:04;;;;;;;22.48;19.08;;;4.10;70.50;;;;;;5030496;28;20064;-79
2022/03/25 00:17:31;;;;;;;25.08;19.55;;;3.90;71.30;;;;;;5014607;28;20061;-79
2022/03/25 00:19:57;;;;;;;27.65;19.40;;;3.80;71.80;;;;;;5025812;28;20421;-80
2022/03/25 00:22:23;;;;;;;27.38;19.73;;;3.70;71.90;;;;;;5018654;28;20037;-79
2022/03/25 00:24:49;;;;;;;24.67;18.45;;;3.60;71.40;;;;;;5025491;28;20029;-79
2022/03/25 00:27:17;;;;;;;22.10;19.02;;;3.60;71.50;;;;;;5020001;28;20046;-79
2022/03/25 00:29:44;;;;;;;23.63;19.67;;;3.60;71.70;;;;;;5014674;28;20034;-79
2022/03/25 00:32:10;;;;;;;23.98;19.45;;;3.60;71.70;;;;;;5026176;28;20037;-78
2022/03/25 00:34:36;;;;;;;22.48;19.30;;;3.50;71.70;;;;;;5023884;28;20493;-78
2022/03/25 00:37:05;;;;;;;21.17;19.08;;;3.50;71.70;;;;;;5007113;28;20049;-79
2022/03/25 00:39:31;;;;;;;22.00;17.25;;;3.50;71.90;;;;;;5030999;28;20038;-78
2022/03/25 00:41:57;;;;;;;27.08;18.10;;;3.40;72.20;;;;;;5038651;28;20033;-80
2022/03/25 00:44:24;;;;;;;21.23;18.00;;;3.50;72.10;;;;;;5028113;28;20048;-78
2022/03/25 00:46:51;;;;;;;33.72;20.23;;;3.40;71.90;;;;;;5039534;28;20033;-79
2022/03/25 00:49:18;;;;;;;25.17;18.92;;;3.40;72.40;;;;;;5027056;28;20029;-79
2022/03/25 00:51:46;;;;;;;20.77;18.45;;;3.30;72.50;;;;;;5030884;28;20029;-78
2022/03/25 00:54:13;;;;;;;26.05;18.98;;;3.20;72.90;;;;;;5018066;28;20501;-78
2022/03/25 00:56:39;;;;;;;27.05;20.48;;;3.20;73.20;;;;;;5026853;28;20042;-79
2022/03/25 00:59:06;;;;;;;25.17;18.20;;;3.20;73.40;;;;;;5022659;28;20029;-79
2022/03/25 01:01:32;;;;;;;23.60;18.58;;;3.10;73.80;;;;;;5020461;28;20033;-79
2022/03/25 01:03:59;;;;;;;25.50;22.05;;;3.10;74.10;;;;;;5031595;28;20467;-80
2022/03/25 01:06:25;;;;;;;34.20;21.67;;;3.10;74.30;;;;;;5024820;28;20029;-79
2022/03/25 01:08:51;;;;;;;22.63;19.55;;;3.20;74.20;;;;;;5024001;28;20025;-79
2022/03/25 01:11:18;;;;;;;27.45;21.60;;;3.30;73.90;;;;;;5024620;28;20053;-79
2022/03/25 01:13:45;;;;;;;24.33;19.30;;;3.20;73.80;;;;;;5031098;28;20033;-79
2022/03/25 01:16:11;;;;;;;32.00;21.92;;;3.20;73.70;;;;;;5027801;28;20045;-79
2022/03/25 01:18:37;;;;;;;21.85;19.17;;;3.20;74.00;;;;;;5030440;28;20045;-79
2022/03/25 01:21:04;;;;;;;21.95;18.60;;;3.20;74.20;;;;;;5014236;28;20038;-79
2022/03/25 01:23:30;;;;;;;22.88;19.35;;;3.20;74.40;;;;;;5020376;28;20033;-78
2022/03/25 01:25:56;;;;;;;25.85;21.00;;;3.10;74.50;;;;;;5023955;28;20101;-79
2022/03/25 01:28:23;;;;;;;23.92;19.40;;;3.20;74.40;;;;;;5020975;28;20063;-79
2022/03/25 01:30:50;;;;;;;21.95;19.55;;;3.10;74.20;;;;;;5022159;28;20061;-78
2022/03/25 01:33:18;;;;;;;24.70;20.27;;;3.00;74.30;;;;;;5021290;28;20045;-78
2022/03/25 01:35:45;;;;;;;31.27;19.40;;;2.90;74.50;;;;;;5019717;28;20036;-78
2022/03/25 01:38:11;;;;;;;26.13;20.80;;;2.80;75.50;;;;;;5042407;28;20120;-79
2022/03/25 01:40:37;;;;;;;23.75;19.92;;;2.80;75.80;;;;;;5021437;28;20029;-79
2022/03/25 01:43:07;;;;;;;26.52;19.75;;;2.80;75.90;;;;;;5013831;28;20042;-79
2022/03/25 01:45:35;;;;;;;24.58;19.92;;;2.80;75.90;;;;;;5016812;28;20034;-78
2022/03/25 01:48:07;;;;;;;25.05;18.40;;;2.70;76.20;;;;;;5021614;28;20033;-78
2022/03/25 01:50:33;;;;;;;23.95;19.10;;;2.70;76.50;;;;;;5029374;28;20044;-78
2022/03/25 01:53:00;;;;;;;25.17;20.67;;;2.60;76.50;;;;;;5031457;28;20034;-79
2022/03/25 01:55:27;;;;;;;23.33;19.38;;;2.50;77.30;;;;;;5031453;28;20033;-79
2022/03/25 01:57:58;;;;;;;23.23;19.45;;;2.50;77.60;;;;;;5032387;28;20108;-79
2022/03/25 02:00:29;;;;;;;23.52;18.15;;;2.40;77.90;;;;;;5029227;28;20045;-79
2022/03/25 02:02:55;;;;;;;27.05;18.95;;;2.40;78.40;;;;;;5023027;28;20030;-80
2022/03/25 02:05:21;;;;;;;31.35;20.23;;;2.40;78.90;;;;;;5032163;28;20037;-79
2022/03/25 02:07:48;;;;;;;25.25;18.17;;;2.30;79.50;;;;;;5020507;28;20073;-79
2022/03/25 02:10:17;;;;;;;24.58;19.85;;;2.30;79.80;;;;;;5026281;28;20180;-78
2022/03/25 02:12:44;;;;;;;27.05;20.38;;;2.20;80.80;;;;;;5025250;28;20045;-79
2022/03/25 02:15:12;;;;;;;22.92;19.90;;;2.20;80.60;;;;;;5019463;28;20372;-79
2022/03/25 02:17:38;;;;;;;22.23;19.88;;;2.20;81.30;;;;;;5019234;28;20049;-79
2022/03/25 02:20:09;;;;;;;31.73;21.02;;;2.20;81.40;;;;;;5026350;28;20411;-79
2022/03/25 02:22:37;;;;;;;29.17;19.55;;;2.20;81.40;;;;;;5015376;28;20040;-80
2022/03/25 02:25:08;;;;;;;23.85;21.27;;;2.10;81.60;;;;;;5020612;28;20041;-79
2022/03/25 02:27:38;;;;;;;30.60;23.30;;;2.10;81.90;;;;;;5038355;28;20041;-80
2022/03/25 02:30:07;;;;;;;31.17;21.05;;;2.10;82.30;;;;;;5016153;28;20037;-79
2022/03/25 02:32:35;;;;;;;29.33;21.38;;;2.10;82.10;;;;;;5021008;28;20065;-79
2022/03/25 02:35:01;;;;;;;35.15;22.27;;;2.10;82.20;;;;;;5018658;28;20105;-79
2022/03/25 02:37:28;;;;;;;23.13;19.60;;;2.10;82.80;;;;;;5017038;28;20056;-80
2022/03/25 02:39:54;;;;;;;23.00;20.17;;;2.10;82.80;;;;;;5022588;28;20022;-78
2022/03/25 02:42:21;;;;;;;28.83;20.55;;;2.10;83.10;;;;;;5029613;28;20042;-79
2022/03/25 02:44:48;;;;;;;33.00;19.15;;;1.90;83.30;;;;;;5017200;28;20041;-79
2022/03/25 02:47:15;;;;;;;27.20;21.88;;;1.80;84.80;;;;;;5036483;28;20061;-79
2022/03/25 02:49:42;;;;;;;28.38;19.05;;;1.70;85.60;;;;;;5014859;28;20475;-79
2022/03/25 02:52:08;;;;;;;25.10;20.77;;;1.70;85.80;;;;;;5026025;28;20081;-79
2022/03/25 02:54:34;;;;;;;21.63;19.35;;;1.70;86.60;;;;;;5016795;28;20053;-79
2022/03/25 02:57:00;;;;;;;31.77;20.98;;;1.70;86.40;;;;;;5029913;28;20045;-80
2022/03/25 02:59:26;;;;;;;24.15;20.05;;;1.70;86.00;;;;;;5017338;28;20033;-79
2022/03/25 03:01:53;;;;;;;23.80;20.83;;;1.60;86.40;;;;;;5027903;28;20040;-79
2022/03/25 03:04:19;;;;;;;26.30;20.35;;;1.50;86.90;;;;;;5016082;28;20030;-78
2022/03/25 03:06:45;;;;;;;27.92;21.17;;;1.50;87.20;;;;;;5024532;28;20038;-79
2022/03/25 03:09:12;;;;;;;29.60;21.40;;;1.50;88.40;;;;;;5025491;28;20044;-78
2022/03/25 03:11:38;;;;;;;27.60;22.95;;;1.60;88.40;;;;;;5022850;28;20030;-79
2022/03/25 03:14:04;;;;;;;25.50;20.20;;;1.70;88.10;;;;;;5027727;28;20041;-79
2022/03/25 03:16:30;;;;;;;24.77;22.20;;;1.60;87.10;;;;;;5027842;28;20049;-78
2022/03/25 03:18:57;;;;;;;30.13;23.60;;;1.60;87.70;;;;;;5027559;28;20041;-79
2022/03/25 03:21:24;;;;;;;34.47;20.45;;;1.60;88.30;;;;;;5025117;28;20050;-79
2022/03/25 03:23:52;;;;;;;25.58;21.80;;;1.50;88.10;;;;;;5014252;28;20030;-79
2022/03/25 03:26:21;;;;;;;48.25;23.30;;;1.60;88.20;;;;;;5015884;28;20041;-79
2022/03/25 03:28:47;;;;;;;26.58;22.23;;;1.60;88.20;;;;;;5007895;28;20491;-79
2022/03/25 03:31:14;;;;;;;25.48;22.83;;;1.60;87.70;;;;;;5026408;28;20033;-79
2022/03/25 03:33:40;;;;;;;27.20;22.83;;;1.40;88.10;;;;;;5028631;28;20042;-78
2022/03/25 03:36:07;;;;;;;25.40;22.45;;;1.30;89.40;;;;;;5020935;28;20493;-79
2022/03/25 03:38:34;;;;;;;32.40;21.65;;;1.30;90.00;;;;;;5027871;28;20065;-79
2022/03/25 03:41:01;;;;;;;30.10;24.35;;;1.20;90.30;;;;;;5031299;28;20132;-79
2022/03/25 03:43:27;;;;;;;25.13;22.48;;;1.10;90.60;;;;;;5013692;28;20032;-80
2022/03/25 03:45:53;;;;;;;27.20;23.17;;;1.10;91.20;;;;;;5014749;28;20045;-80
2022/03/25 03:48:19;;;;;;;27.27;23.95;;;1.20;91.30;;;;;;5027747;28;20037;-79
2022/03/25 03:50:45;;;;;;;25.48;22.92;;;1.30;91.00;;;;;;5030169;28;20037;-79
2022/03/25 03:53:11;;;;;;;25.42;22.63;;;1.40;90.40;;;;;;5019878;28;20486;-79
2022/03/25 03:55:38;;;;;;;30.15;24.65;;;1.30;90.30;;;;;;5032246;28;20045;-79
2022/03/25 03:58:04;;;;;;;27.30;23.60;;;1.30;90.70;;;;;;5028448;28;20042;-79
2022/03/25 04:00:32;;;;;;;28.05;23.17;;;1.10;90.90;;;;;;5024625;28;20525;-79
2022/03/25 04:02:58;;;;;;;31.15;23.17;;;1.00;91.60;;;;;;5025854;28;20032;-79
2022/03/25 04:05:24;;;;;;;31.25;22.40;;;0.90;92.10;;;;;;5028754;28;20467;-79
2022/03/25 04:07:51;;;;;;;45.78;21.73;;;0.80;92.60;;;;;;5026553;28;20030;-79
2022/03/25 04:10:18;;;;;;;34.13;25.52;;;0.80;93.80;;;;;;5021226;28;20033;-79
2022/03/25 04:12:45;;;;;;;29.77;24.90;;;1.00;93.80;;;;;;5025000;28;20032;-79
2022/03/25 04:15:12;;;;;;;30.70;26.02;;;1.10;93.10;;;;;;5028935;28;20030;-79
2022/03/25 04:17:40;;;;;;;34.10;23.63;;;1.20;92.60;;;;;;5025306;28;20046;-79
2022/03/25 04:20:11;;;;;;;39.10;24.25;;;1.10;92.40;;;;;;5029590;28;20037;-79
2022/03/25 04:22:37;;;;;;;28.92;23.48;;;1.20;92.30;;;;;;5018740;28;20041;-80
2022/03/25 04:25:06;;;;;;;32.13;24.50;;;1.10;91.90;;;;;;5014547;28;20034;-79
2022/03/25 04:27:32;;;;;;;34.58;24.13;;;1.10;92.00;;;;;;5020676;28;20037;-79
2022/03/25 04:29:58;;;;;;;26.90;24.15;;;1.10;92.30;;;;;;5026961;28;20489;-79
2022/03/25 04:32:24;;;;;;;29.85;25.45;;;1.00;92.70;;;;;;5027938;28;20037;-79
2022/03/25 04:34:51;;;;;;;34.20;24.30;;;1.00;92.80;;;;;;5021092;28;20041;-78
2022/03/25 04:37:17;;;;;;;30.73;24.25;;;1.00;92.70;;;;;;5024622;28;20041;-79
2022/03/25 04:39:43;;;;;;;30.58;24.23;;;0.90;92.80;;;;;;5017042;28;20042;-79
2022/03/25 04:42:09;;;;;;;29.48;23.55;;;0.80;93.00;;;;;;5018635;28;20036;-78
2022/03/25 04:44:35;;;;;;;30.90;24.98;;;0.70;94.30;;;;;;5022867;28;20037;-78
2022/03/25 04:47:03;;;;;;;35.33;25.42;;;0.60;95.10;;;;;;5029453;28;20048;-78
2022/03/25 04:49:29;;;;;;;41.28;25.88;;;0.60;95.20;;;;;;5028139;28;20029;-78
2022/03/25 04:51:55;;;;;;;30.05;24.70;;;0.60;95.80;;;;;;5026214;28;20064;-79
2022/03/25 04:54:22;;;;;;;37.50;24.05;;;0.50;96.20;;;;;;5026595;28;20048;-78
2022/03/25 04:56:48;;;;;;;35.78;27.50;;;0.60;96.20;;;;;;5035204;28;20040;-78
2022/03/25 04:59:14;;;;;;;37.45;25.70;;;0.60;96.10;;;;;;5029839;28;20042;-79
2022/03/25 05:01:40;;;;;;;32.97;27.60;;;0.60;96.20;;;;;;5033303;28;20032;-78
2022/03/25 05:04:06;;;;;;;39.05;28.17;;;0.60;96.10;;;;;;5036242;28;20029;-78
2022/03/25 05:06:32;;;;;;;30.92;26.60;;;0.60;96.40;;;;;;5020827;28;20029;-78
2022/03/25 05:08:59;;;;;;;38.65;28.30;;;0.60;96.70;;;;;;5024307;28;20440;-79
2022/03/25 05:11:25;;;;;;;36.28;28.02;;;0.60;97.10;;;;;;5024872;28;20030;-78
2022/03/25 05:13:51;;;;;;;32.97;25.92;;;0.60;96.90;;;;;;5015847;28;20123;-77
2022/03/25 05:16:17;;;;;;;41.88;27.27;;;0.40;97.60;;;;;;5021674;28;20068;-78
2022/03/25 05:18:44;;;;;;;33.83;26.98;;;0.40;98.50;;;;;;5031551;28;20047;-79
2022/03/25 05:21:10;;;;;;;35.08;27.83;;;0.40;98.70;;;;;;5022654;28;20034;-79
2022/03/25 05:23:36;;;;;;;37.80;25.33;;;0.30;98.90;;;;;;5026682;28;20040;-79
2022/03/25 05:26:03;;;;;;;37.90;28.17;;;0.20;99.90;;;;;;5027576;28;20097;-78
2022/03/25 05:28:29;;;;;;;39.22;29.00;;;0.20;99.90;;;;;;5026705;28;20048;-78
2022/03/25 05:30:55;;;;;;;31.33;28.05;;;0.20;99.90;;;;;;5018877;28;20048;-79
2022/03/25 05:33:22;;;;;;;42.88;29.90;;;0.20;99.90;;;;;;5025865;28;20037;-79
2022/03/25 05:35:48;;;;;;;32.03;26.33;;;0.30;99.90;;;;;;5023834;28;20038;-79
2022/03/25 05:38:15;;;;;;;35.00;29.02;;;0.30;99.90;;;;;;5014803;28;20052;-80
2022/03/25 05:40:41;;;;;;;33.00;27.42;;;0.30;99.90;;;;;;5028272;28;20026;-79
2022/03/25 05:43:08;;;;;;;41.47;29.30;;;0.40;99.90;;;;;;5025472;28;20045;-79
2022/03/25 05:45:34;;;;;;;43.75;30.85;;;0.40;99.90;;;;;;5017774;28;20030;-79
2022/03/25 05:48:00;;;;;;;31.38;26.50;;;0.50;99.90;;;;;;5032387;28;20033;-79
2022/03/25 05:50:27;;;;;;;39.75;29.95;;;0.60;99.90;;;;;;5023059;28;20096;-79
2022/03/25 05:52:53;;;;;;;34.97;28.15;;;0.70;99.90;;;;;;5018184;28;20053;-79
2022/03/25 05:55:19;;;;;;;41.65;28.90;;;0.80;99.90;;;;;;5026061;28;20029;-80
2022/03/25 05:57:46;;;;;;;39.78;27.67;;;1.00;99.70;;;;;;5026259;28;20045;-80
2022/03/25 06:00:16;;;;;;;35.30;27.83;;;1.20;98.50;;;;;;5027225;28;20029;-79
2022/03/25 06:02:45;;;;;;;30.50;26.13;;;1.20;97.30;;;;;;5028422;28;20474;-80
2022/03/25 06:05:12;;;;;;;37.10;27.42;;;1.60;97.10;;;;;;5028878;28;20037;-79
2022/03/25 06:07:39;;;;;;;35.05;26.92;;;2.20;94.40;;;;;;5029449;28;20398;-80
2022/03/25 06:10:07;;;;;;;31.50;25.63;;;3.10;90.00;;;;;;5033045;28;20100;-79
2022/03/25 06:12:34;;;;;;;28.58;25.58;;;3.70;84.50;;;;;;5027831;28;20097;-78
2022/03/25 06:15:00;;;;;;;35.70;25.63;;;4.10;81.90;;;;;;5027012;28;20041;-78
2022/03/25 06:17:27;;;;;;;27.40;24.25;;;4.70;79.60;;;;;;5029178;28;20056;-77
2022/03/25 06:19:53;;;;;;;27.63;24.38;;;5.50;74.80;;;;;;5027085;28;20033;-79
2022/03/25 06:22:19;;;;;;;27.50;23.48;;;5.60;72.50;;;;;;5031194;28;20474;-79
2022/03/25 06:24:45;;;;;;;39.70;24.13;;;5.60;72.20;;;;;;5028678;28;20034;-81
2022/03/25 06:27:12;;;;;;;31.30;23.90;;;5.50;72.20;;;;;;5028857;28;20391;-79
2022/03/25 06:29:38;;;;;;;25.40;20.50;;;5.70;72.20;;;;;;5032520;28;20045;-79
2022/03/25 06:32:09;;;;;;;24.65;21.83;;;5.70;72.30;;;;;;5029187;28;20025;-80
2022/03/25 06:34:36;;;;;;;26.60;21.05;;;6.40;71.00;;;;;;5025867;28;20037;-80
2022/03/25 06:37:03;;;;;;;27.15;20.88;;;7.50;67.60;;;;;;5016364;28;20448;-80
2022/03/25 06:39:29;;;;;;;33.63;23.45;;;7.90;66.20;;;;;;5022608;28;20041;-80
2022/03/25 06:41:56;;;;;;;26.08;20.25;;;8.70;63.70;;;;;;5029060;28;20046;-81
2022/03/25 06:44:22;;;;;;;30.98;20.52;;;9.10;61.80;;;;;;5014850;28;20037;-80
2022/03/25 06:46:49;;;;;;;25.52;21.50;;;9.40;61.00;;;;;;5021647;28;20034;-80
2022/03/25 06:49:15;;;;;;;25.63;19.65;;;9.70;59.20;;;;;;5031734;28;20045;-80
2022/03/25 06:51:42;;;;;;;26.25;19.55;;;9.90;59.10;;;;;;5019371;28;20049;-79
2022/03/25 06:54:08;;;;;;;24.38;21.35;;;9.70;58.90;;;;;;5016702;28;20034;-80
2022/03/25 06:56:36;;;;;;;28.88;23.02;;;9.20;59.90;;;;;;5021542;28;20506;-80
2022/03/25 06:59:04;;;;;;;36.05;21.30;;;9.00;60.40;;;;;;5013596;28;20038;-79
2022/03/25 07:01:32;;;;;;;31.48;20.98;;;8.80;60.80;;;;;;5027775;28;20038;-79
2022/03/25 07:03:59;;;;;;;24.13;21.67;;;9.40;61.00;;;;;;5025674;28;20025;-81
2022/03/25 07:06:26;;;;;;;28.35;21.42;;;9.10;59.50;;;;;;5031804;28;20032;-78
2022/03/25 07:08:55;;;;;;;33.47;22.50;;;8.90;59.90;;;;;;5027397;28;20029;-79
2022/03/25 07:11:22;;;;;;;25.10;20.92;;;8.40;60.90;;;;;;5030993;28;20025;-78
2022/03/25 07:13:48;;;;;;;31.02;20.90;;;8.00;61.80;;;;;;5021919;28;20041;-79
2022/03/25 07:16:15;;;;;;;35.30;21.73;;;8.20;62.80;;;;;;5015609;28;20050;-79
2022/03/25 07:18:41;;;;;;;26.67;21.80;;;8.60;62.30;;;;;;5022704;28;20036;-78
2022/03/25 07:21:07;;;;;;;26.15;21.02;;;9.00;59.90;;;;;;5021155;28;20076;-79
2022/03/25 07:23:33;;;;;;;32.47;20.92;;;9.00;59.90;;;;;;5033025;28;20502;-79
2022/03/25 07:26:00;;;;;;;29.33;21.50;;;9.10;60.00;;;;;;5024261;28;20049;-78
2022/03/25 07:28:26;;;;;;;26.15;20.17;;;9.40;58.50;;;;;;5025194;28;20052;-78
2022/03/25 07:30:52;;;;;;;29.15;20.92;;;9.80;57.80;;;;;;5022086;28;20033;-77
2022/03/25 07:33:19;;;;;;;28.42;21.67;;;9.70;58.40;;;;;;5017576;28;20041;-79
2022/03/25 07:35:45;;;;;;;27.95;20.42;;;10.20;58.00;;;;;;5027506;28;20491;-79
2022/03/25 07:38:11;;;;;;;25.88;20.90;;;10.50;56.30;;;;;;5019986;28;20041;-79
2022/03/25 07:40:37;;;;;;;27.38;21.80;;;10.60;56.10;;;;;;5019325;28;20037;-79
2022/03/25 07:43:04;;;;;;;30.45;20.80;;;10.50;56.60;;;;;;5026025;28;20034;-79
2022/03/25 07:45:30;;;;;;;39.60;23.58;;;11.00;56.10;;;;;;5025822;28;20072;-80
2022/03/25 07:47:57;;;;;;;29.13;22.13;;;11.30;55.30;;;;;;5018796;28;20041;-80
2022/03/25 07:50:24;;;;;;;32.42;21.98;;;10.50;55.90;;;;;;5030919;28;20403;-79
2022/03/25 07:52:52;;;;;;;26.63;21.20;;;10.10;56.90;;;;;;5021351;28;20040;-79
2022/03/25 07:55:19;;;;;;;30.52;23.13;;;10.30;57.00;;;;;;5014689;28;20030;-79
2022/03/25 07:57:46;;;;;;;26.13;20.58;;;10.30;56.20;;;;;;5018820;28;20025;-79
2022/03/25 08:00:13;;;;;;;30.50;22.42;;;10.30;56.80;;;;;;5023755;28;20407;-79
2022/03/25 08:02:58;;;;;;;33.05;21.75;;;10.60;55.80;;;;;;5027953;28;20403;-78
2022/03/25 08:05:24;;;;;;;25.90;22.08;;;11.10;56.10;;;;;;5017956;28;20033;-77
2022/03/25 08:07:54;;;;;;;27.65;21.83;;;11.60;54.70;;;;;;5025263;28;20034;-77
2022/03/25 08:10:28;;;;;;;26.52;19.83;;;11.70;54.30;;;;;;5013395;28;20443;-77
2022/03/25 08:12:56;;;;;;;36.05;20.73;;;11.60;54.50;;;;;;5013590;28;20037;-77
2022/03/25 08:15:34;;;;;;;25.75;22.23;;;11.70;54.20;;;;;;5015420;28;20049;-77
2022/03/25 08:18:13;;;;;;;28.65;22.58;;;12.10;54.00;;;;;;5021646;28;20463;-78
2022/03/25 08:20:42;;;;;;;25.35;20.77;;;12.80;52.10;;;;;;5013879;28;20351;-77
2022/03/25 08:23:13;;;;;;;31.77;21.85;;;12.90;53.00;;;;;;5020532;28;20457;-77
2022/03/25 08:28:25;;;;;;;39.60;20.80;;;12.50;52.80;;;;;;5017628;28;20041;-77
2022/03/25 08:30:52;;;;;;;27.58;21.25;;;12.50;54.20;;;;;;5033203;28;20036;-77
2022/03/25 08:33:19;;;;;;;28.00;20.63;;;12.50;53.00;;;;;;5020345;28;20045;-77
2022/03/25 08:35:47;;;;;;;25.25;21.67;;;12.70;52.50;;;;;;5035259;28;20037;-77
2022/03/25 08:38:13;;;;;;;29.00;22.27;;;13.00;52.60;;;;;;5031802;28;20048;-77
2022/03/25 08:40:40;;;;;;;33.40;25.10;;;13.30;51.90;;;;;;5021484;28;20034;-77
2022/03/25 08:43:07;;;;;;;36.35;22.90;;;12.70;52.50;;;;;;5034457;28;20034;-77
2022/03/25 08:45:33;;;;;;;26.70;22.50;;;13.20;52.00;;;;;;5030737;28;20026;-78
2022/03/25 08:48:00;;;;;;;33.17;22.45;;;13.60;52.50;;;;;;5021296;28;20037;-78
2022/03/25 08:50:26;;;;;;;27.70;20.17;;;14.80;48.90;;;;;;5023481;28;20040;-78
2022/03/25 08:52:53;;;;;;;28.00;21.75;;;16.00;47.10;;;;;;5028886;28;20052;-78
2022/03/25 08:55:21;;;;;;;25.10;21.33;;;16.70;46.20;;;;;;5032889;28;20021;-79
2022/03/25 08:57:48;;;;;;;30.50;23.95;;;17.10;46.50;;;;;;5019405;28;20038;-79
2022/03/25 09:00:16;;;;;;;26.63;20.95;;;16.60;45.90;;;;;;5033791;28;20041;-78
2022/03/25 09:02:44;;;;;;;28.48;23.10;;;15.80;46.70;;;;;;5036573;28;20459;-78
2022/03/25 09:05:12;;;;;;;27.02;22.50;;;16.10;46.60;;;;;;5035999;28;20025;-79
2022/03/25 09:07:40;;;;;;;24.60;22.00;;;16.60;46.00;;;;;;5030700;28;20056;-78
2022/03/25 09:10:08;;;;;;;30.00;23.10;;;17.40;44.70;;;;;;5029130;28;20041;-82
2022/03/25 09:12:35;;;;;;;27.85;23.13;;;16.90;43.70;;;;;;5035375;28;20056;-78
2022/03/25 09:15:04;;;;;;;30.58;24.90;;;16.70;44.90;;;;;;5030220;28;20037;-79
2022/03/25 09:17:31;;;;;;;27.05;22.23;;;18.00;43.30;;;;;;5032725;28;20045;-77
2022/03/25 09:19:57;;;;;;;25.35;22.70;;;16.60;44.90;;;;;;5031968;28;20041;-79
2022/03/25 09:22:23;;;;;;;32.13;24.70;;;15.70;45.30;;;;;;5037396;28;20034;-78
2022/03/25 09:24:49;;;;;;;26.75;23.00;;;15.90;46.50;;;;;;5037574;28;20042;-81
2022/03/25 09:27:16;;;;;;;29.25;25.15;;;16.20;45.30;;;;;;5030283;28;20026;-78
2022/03/25 09:29:45;;;;;;;32.65;22.95;;;17.00;44.40;;;;;;5040806;28;20035;-79
2022/03/25 09:32:11;;;;;;;31.90;24.98;;;17.10;43.70;;;;;;5026961;28;20025;-80
2022/03/25 09:37:22;;;;;;;33.38;24.95;;;16.00;44.10;;;;;;5021949;28;20029;-78
2022/03/25 09:39:49;;;;;;;33.47;22.83;;;15.30;45.30;;;;;;5012169;28;20038;-79
2022/03/25 09:42:16;;;;;;;27.17;24.00;;;16.20;45.60;;;;;;5015760;28;20606;-77
2022/03/25 09:44:42;;;;;;;29.67;24.25;;;16.70;44.70;;;;;;5013775;28;20061;-77
2022/03/25 09:47:14;;;;;;;32.50;24.00;;;16.20;45.00;;;;;;5017979;28;20037;-78
2022/03/25 09:49:41;;;;;;;28.98;23.83;;;16.20;45.10;;;;;;5027368;28;20041;-78
2022/03/25 09:52:08;;;;;;;31.65;24.00;;;15.70;45.90;;;;;;5018077;28;20418;-78
2022/03/25 09:54:35;;;;;;;30.45;24.92;;;16.30;46.10;;;;;;5013270;28;20654;-77
2022/03/25 09:57:02;;;;;;;37.88;26.27;;;16.60;45.50;;;;;;5023060;28;20033;-78
2022/03/25 09:59:29;;;;;;;29.42;24.30;;;16.20;45.00;;;;;;5020026;28;20037;-78
2022/03/25 10:01:55;;;;;;;29.48;24.63;;;15.40;45.60;;;;;;5030110;28;20410;-78
2022/03/25 10:04:44;;;;;;;30.38;25.33;;;14.90;46.70;;;;;;5023926;28;20363;-79
2022/03/25 10:07:20;;;;;;;30.10;24.17;;;15.10;46.70;;;;;;5030080;28;20356;-78
2022/03/25 10:09:49;;;;;;;36.42;26.50;;;15.10;45.30;;;;;;5027992;28;20467;-78
2022/03/25 10:12:27;;;;;;;34.97;25.17;;;15.30;45.20;;;;;;5033232;28;20036;-77
2022/03/25 10:15:22;;;;;;;33.90;24.92;;;15.20;46.00;;;;;;5029383;28;20048;-78
2022/03/25 10:18:03;;;;;;;32.22;23.90;;;15.20;45.40;;;;;;5026524;28;20041;-77
2022/03/25 10:20:41;;;;;;;39.13;25.30;;;15.30;46.70;;;;;;5026269;28;20052;-77
2022/03/25 10:23:13;;;;;;;29.83;23.17;;;15.20;46.10;;;;;;5022049;28;20386;-79
2022/03/25 10:25:51;;;;;;;37.05;25.70;;;15.10;45.70;;;;;;5021967;28;20479;-78
2022/03/25 10:28:20;;;;;;;28.83;22.88;;;14.90;45.80;;;;;;5013986;28;20049;-77
2022/03/25 10:30:51;;;;;;;35.30;25.65;;;15.10;45.60;;;;;;5041211;28;20087;-77
2022/03/25 10:33:27;;;;;;;37.17;24.67;;;15.50;45.30;;;;;;5015424;28;20634;-78
2022/03/25 10:35:54;;;;;;;39.38;24.60;;;15.40;45.20;;;;;;5033474;28;20470;-77
2022/03/25 10:38:22;;;;;;;34.97;26.10;;;15.40;45.20;;;;;;5019427;28;20494;-77
2022/03/25 10:40:52;;;;;;;36.45;25.92;;;15.50;45.20;;;;;;5019320;28;20030;-77
2022/03/25 10:43:19;;;;;;;34.90;25.80;;;15.40;44.60;;;;;;5028970;28;20578;-77
2022/03/25 10:45:46;;;;;;;31.88;23.10;;;15.70;44.80;;;;;;5031599;28;20144;-77
2022/03/25 10:48:17;;;;;;;38.45;24.70;;;16.00;44.20;;;;;;5028733;28;20029;-79
2022/03/25 10:51:00;;;;;;;34.88;24.15;;;15.90;43.60;;;;;;5024841;28;20033;-78
2022/03/25 10:53:28;;;;;;;39.60;24.45;;;16.10;45.10;;;;;;5026410;28;20053;-77
2022/03/25 10:56:06;;;;;;;34.97;24.90;;;16.10;43.30;;;;;;5019409;28;20053;-78
2022/03/25 10:58:34;;;;;;;32.83;25.80;;;16.10;43.80;;;;;;5013512;28;20042;-80
2022/03/25 11:01:01;;;;;;;37.08;24.65;;;16.10;44.70;;;;;;5021179;28;20041;-81
2022/03/25 11:03:28;;;;;;;35.22;25.42;;;16.10;44.10;;;;;;5029864;28;20356;-80
2022/03/25 11:05:54;;;;;;;34.95;24.70;;;16.10;43.70;;;;;;5027274;28;20360;-80
2022/03/25 11:08:21;;;;;;;36.78;26.48;;;16.00;43.80;;;;;;5016751;28;20034;-80
2022/03/25 11:10:48;;;;;;;34.88;25.73;;;15.90;43.70;;;;;;5025897;28;20030;-80
2022/03/25 11:13:14;;;;;;;35.13;25.30;;;16.10;43.90;;;;;;5026044;28;20029;-80
2022/03/25 11:15:40;;;;;;;36.60;25.42;;;16.30;44.00;;;;;;5023517;28;20041;-80
2022/03/25 11:18:07;;;;;;;32.97;24.30;;;16.50;44.10;;;;;;5026670;28;20049;-79
2022/03/25 11:20:34;;;;;;;35.00;25.17;;;16.40;43.50;;;;;;5041387;28;20043;-79
2022/03/25 11:23:12;;;;;;;35.15;24.58;;;16.50;43.60;;;;;;5026200;28;20038;-81
2022/03/25 11:25:44;;;;;;;32.53;25.20;;;16.50;43.60;;;;;;5025579;28;20029;-80
2022/03/25 11:28:30;;;;;;;32.72;23.92;;;16.50;44.50;;;;;;5027101;28;20057;-79
2022/03/25 11:30:59;;;;;;;46.25;26.85;;;16.50;44.10;;;;;;5030371;28;20045;-79
2022/03/25 11:33:25;;;;;;;29.38;24.00;;;16.70;44.40;;;;;;5027712;28;20036;-79
2022/03/25 11:36:15;;;;;;;27.70;24.90;;;17.10;44.30;;;;;;5026022;28;20032;-79
2022/03/25 11:38:45;;;;;;;34.75;27.17;;;17.00;44.20;;;;;;5024419;28;20383;-80
2022/03/25 11:41:37;;;;;;;32.43;25.73;;;16.90;44.70;;;;;;5025771;28;20033;-80
2022/03/25 11:44:15;;;;;;;33.63;25.75;;;17.20;44.90;;;;;;5012375;28;20046;-78
2022/03/25 11:47:14;;;;;;;38.45;26.63;;;17.10;43.90;;;;;;5020640;28;20042;-77
2022/03/25 11:49:40;;;;;;;38.65;25.85;;;16.90;44.50;;;;;;5026091;28;20045;-78
2022/03/25 11:52:16;;;;;;;34.53;25.42;;;16.80;44.20;;;;;;5031284;28;20037;-75
2022/03/25 11:54:44;;;;;;;44.47;27.52;;;17.10;44.40;;;;;;5027041;28;20032;-77
2022/03/25 11:57:23;;;;;;;33.15;24.50;;;17.20;43.60;;;;;;5020491;28;20038;-74
2022/03/25 11:59:54;;;;;;;35.47;26.10;;;17.30;43.50;;;;;;5014123;28;20041;-77
2022/03/25 12:02:30;;;;;;;39.55;26.95;;;17.30;43.70;;;;;;5013685;28;20033;-75
2022/03/25 12:04:58;;;;;;;29.38;25.98;;;17.20;44.20;;;;;;5022001;28;20056;-76
2022/03/25 12:07:25;;;;;;;36.15;27.25;;;17.20;43.30;;;;;;5017044;28;20045;-76
2022/03/25 12:09:51;;;;;;;34.33;25.67;;;17.50;43.60;;;;;;5021005;28;20033;-75
2022/03/25 12:12:18;;;;;;;31.77;25.45;;;17.40;43.60;;;;;;5023762;28;20034;-75
2022/03/25 12:15:11;;;;;;;36.15;26.98;;;17.80;43.20;;;;;;5029656;28;20024;-75
2022/03/25 12:17:41;;;;;;;36.97;28.38;;;17.70;42.80;;;;;;5022808;28;20049;-75
2022/03/25 12:20:07;;;;;;;45.15;28.90;;;17.70;43.30;;;;;;5025028;28;20061;-75
2022/03/25 12:22:37;;;;;;;37.50;27.85;;;17.60;42.40;;;;;;5027506;28;20045;-75
2022/03/25 12:25:09;;;;;;;39.90;27.65;;;17.60;43.10;;;;;;5025102;28;20034;-79
2022/03/25 12:27:35;;;;;;;37.65;28.05;;;17.70;42.40;;;;;;5019616;28;20045;-76
2022/03/25 12:30:02;;;;;;;36.45;27.13;;;17.80;43.00;;;;;;5028935;28;20037;-80
2022/03/25 12:32:33;;;;;;;32.63;27.20;;;17.80;43.30;;;;;;5024850;28;20026;-77
2022/03/25 12:35:00;;;;;;;29.83;25.88;;;18.10;42.90;;;;;;5020628;28;20033;-78
2022/03/25 12:37:35;;;;;;;40.17;27.65;;;18.30;41.80;;;;;;5027225;28;20595;-78
2022/03/25 12:40:29;;;;;;;37.45;26.65;;;18.30;40.90;;;;;;5024416;28;20049;-76
2022/03/25 12:42:59;;;;;;;42.75;27.73;;;18.20;41.40;;;;;;5022598;28;20068;-76